Time;durP1;ratioP1;P1;durP2;ratioP2;P2;SDS_P1;SDS_P2;PMS_P1;PMS_P2;Temp;Humidity;BMP_temperature;BMP_pressure;BME280_temperature;BME280_humidity;BME280_pressure;Samples;Min_cycle;Max_cycle;Signal;HPM_P1;HPM_P2
2021/07/26 00:01:30;;;;;;;19.00;13.72;;;;;;;18.70;98.02;99832.39;1832396;78;20875;-69
2021/07/26 00:03:56;;;;;;;19.57;13.45;;;;;;;18.70;98.02;99831.80;1832481;77;21483;-72
2021/07/26 00:06:23;;;;;;;17.52;13.43;;;;;;;18.71;98.09;99833.41;1832249;78;21037;-73
2021/07/26 00:08:49;;;;;;;17.50;12.93;;;;;;;18.72;98.00;99830.86;1832216;78;20945;-73
2021/07/26 00:11:17;;;;;;;20.15;13.70;;;;;;;18.71;98.10;99834.80;1832302;77;20941;-72
2021/07/26 00:13:44;;;;;;;23.20;14.00;;;;;;;18.71;97.99;99834.80;1802365;77;20866;-73
2021/07/26 00:16:10;;;;;;;21.30;13.28;;;;;;;18.72;98.24;99835.61;1799543;79;20842;-77
2021/07/26 00:18:37;;;;;;;24.45;13.62;;;;;;;18.71;98.03;99828.44;1799934;79;21456;-73
2021/07/26 00:21:05;;;;;;;24.75;13.28;;;;;;;18.72;98.31;99835.61;1799492;79;20874;-73
2021/07/26 00:23:31;;;;;;;21.48;13.00;;;;;;;18.72;98.72;99835.03;1799635;79;20862;-73
2021/07/26 00:25:58;;;;;;;21.35;13.83;;;;;;;18.73;98.80;99836.64;1799526;79;20949;-73
2021/07/26 00:28:26;;;;;;;23.90;13.62;;;;;;;18.72;98.98;99828.66;1799655;79;22028;-73
2021/07/26 00:30:52;;;;;;;21.00;13.88;;;;;;;18.73;99.13;99837.23;1799911;79;21160;-72
2021/07/26 00:34:00;;;;;;;32.03;14.30;;;;;;;18.70;99.17;99828.22;1799517;79;20902;-71
2021/07/26 00:36:27;;;;;;;24.72;13.90;;;;;;;18.70;99.38;99829.61;1683366;84;21042;-74
2021/07/26 00:38:54;;;;;;;22.42;13.03;;;;;;;18.71;99.46;99833.41;1784334;79;20938;-74
2021/07/26 00:41:22;;;;;;;18.48;12.70;;;;;;;18.73;99.36;99837.23;1800096;79;20874;-83
2021/07/26 00:43:49;;;;;;;18.73;13.35;;;;;;;18.73;99.08;99835.84;1799565;79;22958;-80
2021/07/26 00:46:16;;;;;;;24.87;13.28;;;;;;;18.74;98.99;99833.27;1799888;79;20950;-80
2021/07/26 00:48:44;;;;;;;18.52;13.08;;;;;;;18.73;98.29;99830.27;1799508;79;20878;-79
2021/07/26 00:51:11;;;;;;;19.75;12.65;;;;;;;18.75;97.84;99826.55;1799551;79;20882;-71
2021/07/26 00:53:38;;;;;;;25.70;12.90;;;;;;;18.80;97.21;99829.04;1799537;79;20913;-72
2021/07/26 00:56:07;;;;;;;17.90;12.82;;;;;;;18.82;96.86;99824.50;1811863;77;20993;-72
2021/07/26 00:58:34;;;;;;;20.62;12.50;;;;;;;18.81;96.81;99825.09;1805264;77;20874;-72
2021/07/26 01:01:01;;;;;;;20.12;12.73;;;;;;;18.83;96.89;99817.77;1799486;79;20923;-72
2021/07/26 01:03:27;;;;;;;18.20;12.60;;;;;;;18.83;97.00;99818.58;1826558;78;21466;-71
2021/07/26 01:05:53;;;;;;;25.35;13.05;;;;;;;18.83;96.93;99814.41;1806109;78;21014;-72
2021/07/26 01:08:20;;;;;;;21.07;12.75;;;;;;;18.79;96.63;99809.35;1837968;78;21518;-72
2021/07/26 01:10:46;;;;;;;19.40;12.37;;;;;;;18.75;96.35;99810.66;1805916;78;20924;-72
2021/07/26 01:13:13;;;;;;;18.07;12.15;;;;;;;18.75;96.75;99812.64;1831347;78;20896;-72
2021/07/26 01:15:39;;;;;;;23.77;13.45;;;;;;;18.74;96.34;99807.66;1832966;78;21445;-72
2021/07/26 01:18:25;;;;;;;21.57;12.75;;;;;;;18.73;96.44;99799.69;1832104;78;20941;-72
2021/07/26 01:20:53;;;;;;;23.83;14.28;;;;;;;18.73;96.57;99803.86;1825514;77;20954;-72
2021/07/26 01:23:23;;;;;;;21.62;13.08;;;;;;;18.70;96.18;99804.00;1739533;81;21448;-73
2021/07/26 01:25:49;;;;;;;20.88;12.37;;;;;;;18.70;96.37;99803.19;1755938;81;20996;-73
2021/07/26 01:28:18;;;;;;;17.77;12.43;;;;;;;18.71;96.28;99802.83;1771575;80;20980;-73
2021/07/26 01:30:46;;;;;;;16.45;12.58;;;;;;;18.69;96.10;99800.19;1761435;80;20907;-72
2021/07/26 01:33:14;;;;;;;21.42;12.47;;;;;;;18.69;96.53;99804.36;1761708;81;21468;-72
2021/07/26 01:35:42;;;;;;;23.25;13.28;;;;;;;18.68;96.66;99799.97;1761394;81;20867;-72
2021/07/26 01:38:09;;;;;;;21.17;13.08;;;;;;;18.65;96.58;99802.09;1761778;81;20972;-72
2021/07/26 01:40:39;;;;;;;21.30;12.93;;;;;;;18.61;96.82;99799.22;1761477;81;20860;-72
2021/07/26 01:43:07;;;;;;;21.55;13.20;;;;;;;18.60;96.85;99800.95;1761684;81;20911;-72
2021/07/26 01:45:34;;;;;;;16.02;12.53;;;;;;;18.57;96.77;99803.06;1761839;79;21163;-73
2021/07/26 01:48:17;;;;;;;22.22;12.98;;;;;;;18.54;96.86;99803.79;1761566;81;20920;-73
2021/07/26 01:51:02;;;;;;;22.70;13.58;;;;;;;18.51;97.10;99808.68;1761382;81;20931;-73
2021/07/26 01:53:30;;;;;;;18.05;13.65;;;;;;;18.49;97.40;99800.70;1761429;81;21489;-72
2021/07/26 01:55:56;;;;;;;22.15;14.13;;;;;;;18.46;97.60;99808.41;1760833;81;20930;-72
2021/07/26 01:58:24;;;;;;;21.82;13.10;;;;;;;18.42;97.51;99804.16;1756618;81;21052;-73
2021/07/26 02:00:50;;;;;;;22.30;13.10;;;;;;;18.39;97.60;99802.09;1756495;80;21627;-73
2021/07/26 02:03:16;;;;;;;21.68;13.08;;;;;;;18.35;97.73;99803.19;1766956;80;20899;-73
2021/07/26 02:05:43;;;;;;;17.80;13.22;;;;;;;18.32;98.00;99803.32;1783886;80;21450;-72
2021/07/26 02:08:10;;;;;;;29.40;14.38;;;;;;;18.30;98.02;99806.23;1756586;81;20875;-71
2021/07/26 02:10:37;;;;;;;15.38;11.45;;;;;;;18.28;98.09;99803.82;1768463;80;21102;-72
2021/07/26 02:13:03;;;;;;;21.95;12.50;;;;;;;18.25;98.09;99807.32;1787959;80;21376;-72
2021/07/26 02:15:30;;;;;;;18.55;13.35;;;;;;;18.24;98.26;99811.84;1787695;80;20947;-72
2021/07/26 02:17:57;;;;;;;24.25;12.82;;;;;;;18.21;98.27;99809.20;1787796;80;20950;-71
2021/07/26 02:20:24;;;;;;;25.08;13.35;;;;;;;18.17;98.47;99809.70;1787684;80;20920;-71
2021/07/26 02:22:51;;;;;;;17.95;12.47;;;;;;;18.14;98.49;99809.84;1777959;80;21126;-71
2021/07/26 02:25:19;;;;;;;19.87;13.50;;;;;;;18.11;98.54;99811.14;1756497;81;20883;-72
2021/07/26 02:27:45;;;;;;;25.23;13.30;;;;;;;18.08;98.76;99816.03;1756674;81;21625;-73
2021/07/26 02:30:13;;;;;;;22.17;12.85;;;;;;;18.05;98.97;99817.55;1773673;80;20841;-74
2021/07/26 02:32:40;;;;;;;25.15;13.25;;;;;;;18.04;98.94;99818.72;1756590;81;20880;-74
2021/07/26 02:35:08;;;;;;;22.77;12.82;;;;;;;18.02;98.72;99816.88;1756804;80;21061;-74
2021/07/26 02:37:35;;;;;;;25.85;12.80;;;;;;;18.00;98.67;99810.87;1756427;81;20979;-74
2021/07/26 02:40:03;;;;;;;21.87;13.00;;;;;;;17.99;98.66;99817.59;1756611;81;20868;-73
2021/07/26 02:42:30;;;;;;;15.00;11.95;;;;;;;18.00;98.97;99812.27;1756553;81;20892;-73
2021/07/26 02:44:56;;;;;;;19.75;12.82;;;;;;;18.03;99.07;99824.05;1756897;81;21545;-74
2021/07/26 02:47:23;;;;;;;18.98;13.43;;;;;;;18.07;98.31;99829.11;1756526;81;21600;-73
2021/07/26 02:49:50;;;;;;;20.48;13.18;;;;;;;18.10;97.68;99827.59;1756722;81;20966;-74
2021/07/26 02:52:16;;;;;;;27.40;12.78;;;;;;;18.09;97.42;99824.00;1756625;81;20933;-74
2021/07/26 02:54:42;;;;;;;22.48;12.50;;;;;;;18.10;97.25;99827.00;1756941;81;20955;-73
2021/07/26 02:57:09;;;;;;;19.73;12.80;;;;;;;18.14;97.32;99831.26;1758701;81;20876;-74
2021/07/26 02:59:36;;;;;;;23.87;13.00;;;;;;;18.17;97.23;99824.18;1761401;81;21565;-72
2021/07/26 03:02:03;;;;;;;24.72;13.35;;;;;;;18.22;97.60;99829.47;1761321;81;20872;-72
2021/07/26 03:04:31;;;;;;;19.35;12.93;;;;;;;18.26;97.83;99826.19;1761311;81;20879;-73
2021/07/26 03:06:57;;;;;;;24.00;13.83;;;;;;;18.29;98.11;99826.27;1761273;81;20879;-72
2021/07/26 03:09:24;;;;;;;26.15;13.28;;;;;;;18.34;98.18;99832.14;1761390;79;21375;-71
2021/07/26 03:11:52;;;;;;;20.43;12.90;;;;;;;18.39;97.87;99829.89;1779848;80;20864;-73
2021/07/26 03:14:18;;;;;;;22.90;13.38;;;;;;;18.45;97.54;99841.55;1792638;80;20916;-73
2021/07/26 03:16:44;;;;;;;21.75;12.28;;;;;;;18.49;97.28;99839.04;1792651;79;21395;-73
2021/07/26 03:19:11;;;;;;;20.32;12.78;;;;;;;18.55;96.76;99833.20;1792614;80;20872;-73
2021/07/26 03:21:38;;;;;;;21.57;12.58;;;;;;;18.61;96.50;99835.38;1793036;80;20919;-73
2021/07/26 03:24:05;;;;;;;17.95;11.95;;;;;;;18.65;96.59;99838.23;1769199;80;21501;-73
2021/07/26 03:26:31;;;;;;;30.30;13.08;;;;;;;18.67;96.47;99837.28;1793031;80;20935;-71
2021/07/26 03:28:58;;;;;;;29.02;14.33;;;;;;;18.70;96.08;99835.17;1792675;80;20912;-71
2021/07/26 03:31:26;;;;;;;24.80;12.63;;;;;;;18.73;95.76;99830.27;1792820;80;21372;-70
2021/07/26 03:33:52;;;;;;;20.17;12.65;;;;;;;18.77;95.31;99837.53;1792681;80;20943;-71
2021/07/26 03:36:19;;;;;;;21.02;12.35;;;;;;;18.85;94.76;99838.49;1792756;80;21129;-72
2021/07/26 03:38:46;;;;;;;21.45;13.03;;;;;;;18.92;94.64;99837.84;1792653;80;20919;-72
2021/07/26 03:41:12;;;;;;;25.25;12.63;;;;;;;18.98;94.44;99833.02;1792736;79;20854;-71
2021/07/26 03:43:40;;;;;;;21.17;12.05;;;;;;;19.07;93.55;99836.36;1792632;80;21303;-72
2021/07/26 03:46:07;;;;;;;22.85;11.83;;;;;;;19.16;92.68;99840.91;1793031;80;20983;-72
2021/07/26 03:48:33;;;;;;;21.07;12.68;;;;;;;19.22;91.10;99834.68;1792762;79;21192;-72
2021/07/26 03:50:59;;;;;;;17.10;11.73;;;;;;;19.30;89.41;99843.40;1792629;80;20864;-72
2021/07/26 03:53:26;;;;;;;23.07;12.75;;;;;;;19.40;88.37;99841.41;1792707;80;20986;-72
2021/07/26 03:55:52;;;;;;;18.07;11.85;;;;;;;19.49;88.49;99842.58;1784884;78;20924;-72
2021/07/26 03:58:19;;;;;;;25.17;12.70;;;;;;;19.59;87.49;99839.23;1786563;79;20920;-73
2021/07/26 04:00:45;;;;;;;19.62;10.95;;;;;;;19.71;86.46;99845.98;1769958;80;21017;-72
2021/07/26 04:03:20;;;;;;;19.98;11.00;;;;;;;19.85;85.62;99846.04;1755959;80;20956;-73
2021/07/26 04:05:49;;;;;;;16.15;12.13;;;;;;;19.96;84.63;99842.85;1779941;80;20952;-73
2021/07/26 04:08:17;;;;;;;16.23;11.00;;;;;;;20.07;84.23;99846.05;1768235;80;21490;-74
2021/07/26 04:10:47;;;;;;;23.07;12.65;;;;;;;20.19;83.86;99845.05;1786699;80;21467;-74
2021/07/26 04:13:12;;;;;;;20.92;11.55;;;;;;;20.34;82.49;99850.23;1786642;78;21431;-74
2021/07/26 04:15:44;;;;;;;16.00;10.95;;;;;;;20.48;81.60;99853.28;1786682;80;20952;-75
2021/07/26 04:18:08;;;;;;;18.55;10.90;;;;;;;20.62;81.54;99847.13;1786739;80;20904;-73
2021/07/26 04:20:35;;;;;;;18.15;10.58;;;;;;;20.75;79.64;99849.32;1786845;80;21483;-74
2021/07/26 04:23:01;;;;;;;16.62;10.48;;;;;;;20.85;78.89;99849.23;1786634;80;20936;-73
2021/07/26 04:25:27;;;;;;;15.43;10.50;;;;;;;20.96;78.64;99848.79;1807906;78;20931;-73
2021/07/26 04:27:54;;;;;;;17.32;9.95;;;;;;;21.07;77.27;99858.70;1807572;79;20963;-73
2021/07/26 04:30:21;;;;;;;17.60;10.48;;;;;;;21.17;77.39;99855.84;1807746;79;20885;-73
2021/07/26 04:32:47;;;;;;;18.98;10.23;;;;;;;21.28;78.01;99851.22;1807666;79;20884;-73
2021/07/26 04:35:16;;;;;;;16.20;9.78;;;;;;;21.41;77.73;99851.96;1808547;78;21045;-73
2021/07/26 04:37:44;;;;;;;23.32;10.25;;;;;;;21.52;76.77;99849.30;1821322;78;20859;-72
2021/07/26 04:40:11;;;;;;;18.57;10.45;;;;;;;21.64;76.55;99853.81;1811861;78;20839;-73
2021/07/26 04:42:39;;;;;;;19.27;10.18;;;;;;;21.71;76.16;99853.89;1794807;80;20938;-72
2021/07/26 04:45:07;;;;;;;17.75;11.00;;;;;;;21.78;76.18;99850.37;1794457;78;20958;-72
2021/07/26 04:47:33;;;;;;;15.65;10.98;;;;;;;21.84;75.32;99850.23;1814502;78;20961;-72
2021/07/26 04:49:59;;;;;;;19.85;10.68;;;;;;;21.90;75.05;99850.09;1794515;80;21105;-72
2021/07/26 04:52:26;;;;;;;17.15;9.30;;;;;;;21.95;74.74;99852.53;1794699;80;21840;-72
2021/07/26 04:54:54;;;;;;;15.85;10.40;;;;;;;22.01;75.46;99850.97;1794352;80;20901;-72
2021/07/26 04:57:21;;;;;;;18.42;10.03;;;;;;;22.07;74.90;99848.06;1796084;79;20879;-72
2021/07/26 04:59:47;;;;;;;17.90;9.53;;;;;;;22.13;75.75;99847.92;1799659;79;21523;-72
2021/07/26 05:02:13;;;;;;;24.75;9.18;;;;;;;22.17;75.86;99844.56;1799586;79;21025;-72
2021/07/26 05:04:40;;;;;;;15.80;9.45;;;;;;;22.22;74.22;99849.80;1799520;79;20905;-72
2021/07/26 05:07:07;;;;;;;12.58;9.00;;;;;;;22.26;72.61;99857.63;1799591;79;20937;-72
2021/07/26 05:09:38;;;;;;;17.77;9.33;;;;;;;;;;1799493;79;21452;-73
2021/07/26 05:12:12;;;;;;;14.93;8.73;;;;;;;22.35;72.56;99847.50;1799303;79;20954;-73
2021/07/26 05:14:36;;;;;;;16.97;10.15;;;;;;;22.40;72.79;99849.34;1799082;79;21078;-72
2021/07/26 05:17:04;;;;;;;16.80;8.95;;;;;;;22.49;72.69;99851.81;1799367;79;21406;-74
2021/07/26 05:19:30;;;;;;;48.73;11.10;;;;;;;22.59;71.55;99850.25;1799552;79;20878;-74
2021/07/26 05:21:57;;;;;;;12.68;8.55;;;;;;;22.72;70.41;99857.14;1799572;79;21488;-75
2021/07/26 05:24:24;;;;;;;11.85;8.90;;;;;;;22.85;69.49;99849.25;1803648;78;20984;-73
2021/07/26 05:27:02;;;;;;;21.52;9.95;;;;;;;23.02;70.11;99858.35;1816982;77;21564;-73
2021/07/26 05:29:29;;;;;;;27.07;10.80;;;;;;;23.20;69.90;99857.01;1804208;78;20977;-72
2021/07/26 05:31:58;;;;;;;17.05;10.08;;;;;;;23.39;67.76;99856.09;1798532;78;21531;-73
2021/07/26 05:34:25;;;;;;;21.55;10.80;;;;;;;23.54;66.70;99852.77;1819580;78;20937;-73
2021/07/26 05:36:51;;;;;;;18.67;9.25;;;;;;;23.68;64.11;99859.02;1817144;78;20867;-74
2021/07/26 05:39:18;;;;;;;13.80;7.95;;;;;;;23.79;63.24;99856.22;1802519;78;21025;-73
2021/07/26 05:41:44;;;;;;;17.77;8.18;;;;;;;23.87;63.19;99853.03;1805132;78;20913;-73
2021/07/26 05:44:11;;;;;;;14.35;8.88;;;;;;;24.02;63.58;99855.26;1796707;79;21025;-73
2021/07/26 05:46:39;;;;;;;19.52;9.53;;;;;;;24.10;60.74;99854.66;1798553;79;20921;-73
2021/07/26 05:49:05;;;;;;;13.68;7.80;;;;;;;24.13;61.01;99843.45;1798109;79;20953;-73
2021/07/26 05:51:31;;;;;;;19.67;7.75;;;;;;;24.20;59.40;99853.27;1797711;79;21878;-74
2021/07/26 05:53:58;;;;;;;15.43;7.75;;;;;;;24.28;58.36;99858.28;1797909;79;20946;-73
2021/07/26 05:56:25;;;;;;;15.83;8.68;;;;;;;24.34;58.10;99860.89;1798098;79;21519;-73
2021/07/26 05:58:52;;;;;;;23.55;9.50;;;;;;;24.42;59.28;99858.88;1808080;79;20898;-73
2021/07/26 06:03:46;;;;;;;14.03;8.80;;;;;;;24.65;57.08;99859.27;1810745;79;21460;-75
2021/07/26 06:06:13;;;;;;;11.43;7.67;;;;;;;24.69;56.92;99858.06;1810504;79;20913;-73
2021/07/26 06:08:41;;;;;;;14.33;8.40;;;;;;;24.78;57.43;99863.86;1810934;79;20957;-73
2021/07/26 06:11:07;;;;;;;12.18;8.13;;;;;;;24.87;57.14;99862.20;1810825;79;20952;-73
2021/07/26 06:13:34;;;;;;;13.50;9.25;;;;;;;24.95;56.34;99863.00;1810789;79;20841;-75
2021/07/26 06:16:07;;;;;;;14.00;8.78;;;;;;;25.01;58.04;99862.81;1810760;79;21417;-75
2021/07/26 06:18:34;;;;;;;11.12;7.83;;;;;;;25.10;59.28;99865.19;1811039;79;20906;-73
2021/07/26 06:21:10;;;;;;;14.20;8.53;;;;;;;25.23;58.81;99863.55;1810554;79;20909;-74
2021/07/26 06:23:36;;;;;;;9.78;8.40;;;;;;;25.29;58.11;99871.15;1810538;79;20949;-76
2021/07/26 06:26:06;;;;;;;13.28;8.55;;;;;;;25.30;57.48;99871.34;1810652;79;20905;-78
2021/07/26 06:28:33;;;;;;;11.15;7.42;;;;;;;25.24;56.79;99872.97;1810655;79;21151;-76
2021/07/26 06:31:02;;;;;;;16.20;8.38;;;;;;;25.20;56.38;99874.19;1810735;79;21550;-74
2021/07/26 06:33:28;;;;;;;13.13;8.70;;;;;;;25.16;56.26;99876.21;1810817;79;20940;-74
2021/07/26 06:35:55;;;;;;;14.60;9.05;;;;;;;25.20;56.67;99884.82;1811018;79;20849;-73
2021/07/26 06:38:22;;;;;;;11.78;8.15;;;;;;;25.30;57.98;99884.59;1810698;79;20886;-73
2021/07/26 06:40:48;;;;;;;14.25;8.60;;;;;;;25.40;57.02;99883.75;1815654;77;21617;-72
2021/07/26 06:43:15;;;;;;;12.88;8.68;;;;;;;25.42;56.75;99882.70;1810920;79;20866;-74
2021/07/26 06:45:41;;;;;;;12.78;8.13;;;;;;;25.41;57.17;99886.76;1810766;79;20929;-77
2021/07/26 06:48:08;;;;;;;12.35;8.95;;;;;;;25.42;54.96;99884.11;1810789;79;21479;-76
2021/07/26 06:50:38;;;;;;;15.65;8.63;;;;;;;25.36;54.06;99886.37;1810977;79;20909;-76
2021/07/26 06:53:07;;;;;;;11.10;8.53;;;;;;;25.29;54.81;99889.41;1810787;79;21808;-76
2021/07/26 06:55:38;;;;;;;11.65;8.15;;;;;;;25.28;55.23;99894.83;1811103;79;20857;-75
2021/07/26 06:58:05;;;;;;;13.90;8.50;;;;;;;25.32;54.48;99897.62;1764055;80;20919;-74
2021/07/26 07:00:32;;;;;;;17.65;8.45;;;;;;;25.37;54.77;99897.21;1756582;81;20928;-73
2021/07/26 07:02:58;;;;;;;13.53;8.60;;;;;;;25.46;55.46;99900.96;1756575;81;20955;-73
2021/07/26 07:05:25;;;;;;;10.15;8.38;;;;;;;25.53;56.18;99898.92;1756547;81;21427;-73
2021/07/26 07:07:51;;;;;;;12.00;7.22;;;;;;;25.59;53.59;99895.88;1756536;81;20903;-73
2021/07/26 07:10:18;;;;;;;14.03;8.40;;;;;;;25.65;54.39;99904.73;1756374;81;20939;-73
2021/07/26 07:12:44;;;;;;;14.15;8.18;;;;;;;25.69;54.25;99901.29;1756517;81;20930;-74
2021/07/26 07:15:18;;;;;;;14.47;7.95;;;;;;;25.67;53.37;99905.12;1756628;81;20896;-73
2021/07/26 07:17:41;;;;;;;20.12;8.78;;;;;;;25.62;54.47;99899.28;1756397;81;21387;-74
2021/07/26 07:20:10;;;;;;;11.85;8.30;;;;;;;25.61;55.31;99903.30;1756829;81;20958;-74
2021/07/26 07:22:36;;;;;;;16.23;8.23;;;;;;;25.63;53.80;99898.68;1760458;80;21041;-74
2021/07/26 07:25:03;;;;;;;20.62;8.63;;;;;;;25.75;54.17;99895.44;1765581;80;20896;-72
2021/07/26 07:27:30;;;;;;;12.40;7.35;;;;;;;25.94;53.01;99904.77;1760280;80;21475;-72
2021/07/26 07:29:56;;;;;;;11.53;7.72;;;;;;;26.06;53.25;99900.65;1756874;80;21645;-71
2021/07/26 07:32:23;;;;;;;11.63;7.80;;;;;;;26.20;53.38;99899.15;1784420;80;20864;-77
2021/07/26 07:34:49;;;;;;;12.75;7.95;;;;;;;26.35;51.89;99901.28;1787792;80;20911;-77
2021/07/26 07:37:17;;;;;;;16.05;8.25;;;;;;;26.51;52.92;99895.13;1775568;79;20959;-79
2021/07/26 07:39:44;;;;;;;17.45;10.55;;;;;;;26.64;51.43;99898.39;1786573;79;20932;-77
2021/07/26 07:42:10;;;;;;;17.60;8.93;;;;;;;26.73;50.46;99904.95;1787874;80;21098;-74
2021/07/26 07:44:37;;;;;;;11.83;7.62;;;;;;;26.71;48.67;99896.13;1787721;80;20951;-70
2021/07/26 07:47:03;;;;;;;101.38;28.00;;;;;;;26.69;49.29;99897.75;1788088;79;21418;-71
2021/07/26 07:49:31;;;;;;;16.37;8.00;;;;;;;26.74;49.41;99896.70;1787747;79;20927;-72
2021/07/26 07:51:58;;;;;;;9.98;6.83;;;;;;;26.97;49.65;99903.15;1787697;80;21521;-73
2021/07/26 07:54:24;;;;;;;14.53;6.78;;;;;;;27.30;49.29;99898.73;1787945;79;22073;-72
2021/07/26 07:56:52;;;;;;;16.67;6.87;;;;;;;27.58;47.10;99901.20;1787653;80;20833;-73
2021/07/26 07:59:18;;;;;;;8.78;7.33;;;;;;;27.66;44.03;99896.30;1793746;78;21497;-73
2021/07/26 08:01:45;;;;;;;19.77;7.30;;;;;;;27.56;46.19;99900.03;1796460;78;21417;-73
2021/07/26 08:04:12;;;;;;;9.88;6.33;;;;;;;27.45;46.24;99898.75;1796435;78;21501;-77
2021/07/26 08:06:41;;;;;;;11.85;6.35;;;;;;;27.47;46.24;99903.97;1796290;79;22129;-77
2021/07/26 08:09:08;;;;;;;13.40;6.50;;;;;;;27.60;45.75;99898.80;1796286;78;21006;-77
2021/07/26 08:11:34;;;;;;;11.08;6.17;;;;;;;27.65;45.70;99900.95;1796405;80;20871;-71
2021/07/26 08:14:00;;;;;;;9.88;7.28;;;;;;;27.67;45.40;99897.11;1796672;78;20955;-74
2021/07/26 08:16:27;;;;;;;8.60;6.30;;;;;;;27.62;45.52;99902.60;1796596;80;21501;-75
2021/07/26 08:18:54;;;;;;;10.55;6.72;;;;;;;27.78;46.88;99899.94;1796364;78;21109;-80
2021/07/26 08:21:21;;;;;;;11.65;7.20;;;;;;;28.11;45.78;99900.28;1796289;79;20958;-78
2021/07/26 08:23:48;;;;;;;12.35;6.30;;;;;;;28.56;46.90;99906.42;1796443;80;20911;-77
2021/07/26 08:26:15;;;;;;;14.10;6.62;;;;;;;29.00;44.37;99898.80;1796242;80;20872;-75
2021/07/26 08:28:41;;;;;;;12.28;5.72;;;;;;;29.29;43.18;99897.02;1796703;80;20907;-73
2021/07/26 08:31:07;;;;;;;11.80;6.12;;;;;;;29.44;41.89;99898.97;1796481;80;20976;-72
2021/07/26 08:33:34;;;;;;;10.60;5.25;;;;;;;29.62;40.16;99895.73;1796290;78;21458;-74
2021/07/26 08:36:02;;;;;;;10.28;5.65;;;;;;;29.79;38.33;99894.56;1788030;80;20995;-75
2021/07/26 08:38:28;;;;;;;12.55;5.87;;;;;;;29.83;39.16;99896.69;1772386;80;20967;-76
2021/07/26 08:40:55;;;;;;;10.70;6.12;;;;;;;29.92;39.26;99896.89;1791661;80;20828;-76
2021/07/26 08:43:23;;;;;;;13.68;6.10;;;;;;;30.07;40.01;99899.58;1764956;81;21588;-72
2021/07/26 08:45:51;;;;;;;14.63;6.05;;;;;;;30.24;38.60;99904.64;1764874;80;20903;-70
2021/07/26 08:48:18;;;;;;;8.48;6.03;;;;;;;30.23;38.91;99899.59;1766916;80;20967;-71
2021/07/26 08:50:44;;;;;;;7.33;5.33;;;;;;;30.36;37.87;99890.41;1764784;81;21403;-73
2021/07/26 08:53:10;;;;;;;10.32;5.78;;;;;;;30.46;38.07;99900.05;1765210;81;20970;-74
2021/07/26 08:55:37;;;;;;;11.50;6.10;;;;;;;30.57;37.33;99891.91;1764953;81;21510;-73
2021/07/26 08:58:04;;;;;;;12.60;6.58;;;;;;;30.67;37.63;99887.39;1764816;79;21438;-73
2021/07/26 09:00:32;;;;;;;9.98;5.95;;;;;;;30.66;37.20;99892.88;1767508;80;20945;-74
2021/07/26 09:02:58;;;;;;;10.82;6.33;;;;;;;30.63;36.50;99886.69;1778224;80;20891;-71
2021/07/26 09:05:24;;;;;;;10.55;6.10;;;;;;;30.64;38.04;99891.11;1780385;80;21403;-72
2021/07/26 09:07:51;;;;;;;11.33;6.45;;;;;;;30.77;37.23;99889.77;1796454;79;21108;-71
2021/07/26 09:10:21;;;;;;;12.88;6.33;;;;;;;30.83;38.13;99883.73;1796260;80;20856;-70
2021/07/26 09:12:51;;;;;;;9.13;5.62;;;;;;;30.92;37.45;99880.27;1778078;80;20967;-71
2021/07/26 09:15:24;;;;;;;10.03;6.00;;;;;;;30.98;36.86;99882.73;1764875;80;20919;-71
2021/07/26 09:17:51;;;;;;;11.68;5.83;;;;;;;30.99;38.19;99886.54;1765224;81;20914;-71
2021/07/26 09:20:18;;;;;;;10.28;5.90;;;;;;;31.20;37.99;99885.95;1765101;80;21148;-72
2021/07/26 09:22:46;;;;;;;16.35;6.17;;;;;;;31.37;38.01;99880.22;1764836;81;20903;-70
2021/07/26 09:25:25;;;;;;;8.13;5.90;;;;;;;31.55;37.21;99876.86;1764975;81;20924;-71
2021/07/26 09:28:12;;;;;;;9.25;6.17;;;;;;;31.67;36.20;99883.98;1780913;80;20911;-71
2021/07/26 09:30:55;;;;;;;11.43;6.33;;;;;;;31.80;36.49;99879.75;1794891;79;21058;-71
2021/07/26 09:33:27;;;;;;;7.50;6.08;;;;;;;31.79;34.57;99880.38;1795626;80;21843;-71
2021/07/26 09:36:19;;;;;;;8.00;6.30;;;;;;;31.70;35.32;99873.80;1795418;80;20951;-71
2021/07/26 09:38:52;;;;;;;7.00;5.47;;;;;;;31.65;34.79;99880.00;1795804;80;20939;-73
2021/07/26 09:41:45;;;;;;;10.10;6.55;;;;;;;31.59;34.95;99870.46;1795536;80;21030;-73
2021/07/26 09:44:12;;;;;;;9.73;6.12;;;;;;;31.56;35.55;99879.87;1795563;80;21093;-73
2021/07/26 09:46:43;;;;;;;9.33;6.62;;;;;;;31.71;35.98;99881.06;1796335;78;21130;-73
2021/07/26 09:49:14;;;;;;;10.28;6.55;;;;;;;31.94;34.75;99879.30;1796506;80;21512;-73
2021/07/26 09:51:42;;;;;;;12.00;6.85;;;;;;;32.09;34.22;99876.81;1796524;80;20958;-73
2021/07/26 09:54:08;;;;;;;11.18;7.20;;;;;;;32.24;34.89;99877.18;1796385;80;20962;-73
2021/07/26 09:56:35;;;;;;;12.37;7.12;;;;;;;32.34;34.29;99879.67;1796551;80;21399;-74
2021/07/26 09:59:02;;;;;;;10.63;6.80;;;;;;;32.37;33.46;99876.51;1796183;78;23311;-74
2021/07/26 10:01:29;;;;;;;14.78;6.22;;;;;;;32.34;32.97;99874.61;1796333;80;20828;-73
2021/07/26 10:03:59;;;;;;;11.90;6.05;;;;;;;32.22;33.04;99881.89;1793120;80;21457;-74
2021/07/26 10:06:28;;;;;;;8.40;5.42;;;;;;;32.11;31.82;99873.69;1791082;80;20970;-73
2021/07/26 10:08:58;;;;;;;12.73;6.05;;;;;;;32.04;31.32;99881.02;1777851;80;20887;-75
2021/07/26 10:11:24;;;;;;;9.85;6.10;;;;;;;32.02;32.09;99882.72;1786698;80;21128;-73
2021/07/26 10:13:51;;;;;;;9.50;5.75;;;;;;;32.01;31.67;99874.83;1777478;78;20995;-74
2021/07/26 10:16:18;;;;;;;8.85;6.12;;;;;;;32.10;33.43;99874.94;1765466;80;21026;-74
2021/07/26 10:18:49;;;;;;;9.70;5.95;;;;;;;32.25;33.61;99875.30;1762653;78;20947;-75
2021/07/26 10:21:18;;;;;;;8.28;5.78;;;;;;;32.30;32.17;99872.52;1782224;80;20828;-73
2021/07/26 10:23:54;;;;;;;16.35;6.80;;;;;;;32.40;31.61;99875.59;1779782;80;21105;-75
2021/07/26 10:26:32;;;;;;;10.05;5.62;;;;;;;32.52;32.25;99866.89;1780072;80;20970;-73
2021/07/26 10:28:58;;;;;;;10.45;5.72;;;;;;;32.64;32.01;99857.53;1764326;81;20942;-74
2021/07/26 10:31:32;;;;;;;13.30;6.33;;;;;;;32.71;31.84;99858.71;1769547;78;20884;-76
2021/07/26 10:34:08;;;;;;;8.53;5.85;;;;;;;32.82;33.34;99862.00;1785558;80;20978;-77
2021/07/26 10:36:47;;;;;;;10.75;5.83;;;;;;;32.99;30.89;99860.55;1765953;80;21162;-77
2021/07/26 10:39:19;;;;;;;8.80;6.28;;;;;;;32.90;30.62;99862.55;1763988;81;20962;-79
2021/07/26 10:41:56;;;;;;;12.78;5.97;;;;;;;32.76;30.88;99863.22;1763817;81;20987;-81
2021/07/26 10:44:28;;;;;;;8.35;5.70;;;;;;;32.68;30.71;99859.62;1776388;80;20982;-79
2021/07/26 10:47:07;;;;;;;11.40;5.80;;;;;;;32.53;31.74;99856.48;1759584;80;48487;-80
2021/07/26 10:49:53;;;;;;;10.82;5.55;;;;;;;32.46;31.81;99855.30;1780576;80;20971;-83
2021/07/26 10:52:28;;;;;;;14.23;6.22;;;;;;;32.58;32.78;99854.48;1781288;80;20935;-78
2021/07/26 10:54:57;;;;;;;9.05;5.62;;;;;;;32.74;31.14;99856.37;1781160;78;21102;-77
2021/07/26 10:57:44;;;;;;;8.28;5.95;;;;;;;32.76;31.23;99853.89;1777476;79;21478;-78
2021/07/26 11:00:18;;;;;;;6.58;5.40;;;;;;;32.69;30.12;99853.48;1812090;78;21056;-81
2021/07/26 11:02:47;;;;;;;9.80;5.53;;;;;;;32.60;31.28;99849.76;1824367;78;21936;-79
2021/07/26 11:05:31;;;;;;;9.08;5.20;;;;;;;32.59;31.48;99853.86;1818672;78;20996;-80
2021/07/26 11:08:21;;;;;;;9.13;5.75;;;;;;;32.55;31.19;99844.03;1823218;78;20984;-81
2021/07/26 11:10:57;;;;;;;12.88;6.17;;;;;;;32.60;31.86;99845.50;1812100;78;21547;-79
2021/07/26 11:13:53;;;;;;;8.60;5.55;;;;;;;32.83;30.71;99851.42;1810472;77;21570;-86
2021/07/26 11:16:55;;;;;;;9.90;5.65;;;;;;;32.96;31.51;99850.09;1853222;77;21148;-80
2021/07/26 11:19:54;;;;;;;6.62;5.50;;;;;;;33.14;30.65;99841.70;1853602;77;20828;-78
2021/07/26 11:22:29;;;;;;;9.55;5.85;;;;;;;33.27;30.18;99840.22;1800125;78;21013;-81
2021/07/26 11:25:00;;;;;;;11.12;6.17;;;;;;;33.39;30.21;99833.69;1807532;78;20942;-84
2021/07/26 11:27:40;;;;;;;10.00;5.72;;;;;;;33.29;30.96;99826.98;1794347;79;20909;-85
2021/07/26 11:30:08;;;;;;;8.73;5.55;;;;;;;33.26;31.18;99832.94;1798113;79;21132;-81
2021/07/26 11:32:36;;;;;;;6.53;5.50;;;;;;;33.23;30.54;99827.38;1798214;79;20972;-81
2021/07/26 11:35:04;;;;;;;7.75;5.75;;;;;;;33.29;31.63;99820.66;1798379;79;20961;-80